createdAt,value
2022-08-05T00:00:23.629Z,1009.32
2022-08-05T00:01:27.634Z,1009.35
2022-08-05T00:03:23.738Z,1009.32
2022-08-05T00:04:23.727Z,1009.31
2022-08-05T00:06:01.458Z,1009.31
2022-08-05T00:06:32.434Z,1009.28
2022-08-05T00:08:00.047Z,1009.29
2022-08-05T00:09:23.912Z,1009.27
2022-08-05T00:10:27.006Z,1009.31
2022-08-05T00:11:30.262Z,1009.34
2022-08-05T00:12:24.024Z,1009.38
2022-08-05T00:13:38.319Z,1009.43
2022-08-05T00:14:29.112Z,1009.46
2022-08-05T00:15:56.451Z,1009.48
2022-08-05T00:16:35.920Z,1009.47
2022-08-05T00:17:24.203Z,1009.46
2022-08-05T00:18:24.601Z,1009.47
2022-08-05T00:19:24.757Z,1009.40
2022-08-05T00:20:28.970Z,1009.43
2022-08-05T00:21:24.359Z,1009.45
2022-08-05T00:22:24.440Z,1009.40
2022-08-05T00:23:44.676Z,1009.44
2022-08-05T00:24:30.978Z,1009.39
2022-08-05T00:25:24.551Z,1009.42
2022-08-05T00:26:24.540Z,1009.44
2022-08-05T00:27:35.796Z,1009.37
2022-08-05T00:28:29.713Z,1009.37
2022-08-05T00:29:25.401Z,1009.34
2022-08-05T00:30:29.230Z,1009.37
2022-08-05T00:31:41.465Z,1009.34
2022-08-05T00:32:25.902Z,1009.31
2022-08-05T00:34:53.259Z,1009.30
2022-08-05T00:34:55.704Z,1009.27
2022-08-05T00:35:24.889Z,1009.30
2022-08-05T00:37:12.979Z,1009.29
2022-08-05T00:37:25.518Z,1009.26
2022-08-05T00:38:28.750Z,1009.27
2022-08-05T00:39:25.068Z,1009.27
2022-08-05T00:40:27.299Z,1009.28
2022-08-05T00:41:25.180Z,1009.26
2022-08-05T00:42:31.799Z,1009.24
2022-08-05T00:43:25.175Z,1009.24
2022-08-05T00:44:30.996Z,1009.22
2022-08-05T00:45:37.987Z,1009.25
2022-08-05T00:46:42.810Z,1009.22
2022-08-05T00:47:25.318Z,1009.21
2022-08-05T00:48:31.502Z,1009.20
2022-08-05T00:50:25.782Z,1009.25
2022-08-05T00:51:51.013Z,1009.27
2022-08-05T00:52:28.598Z,1009.25
2022-08-05T00:54:00.900Z,1009.24
2022-08-05T00:54:28.205Z,1009.24
2022-08-05T00:55:34.209Z,1009.24
2022-08-05T00:58:27.360Z,1009.23
2022-08-05T00:59:26.059Z,1009.28
2022-08-05T01:00:26.250Z,1009.37
2022-08-05T01:01:42.613Z,1009.40
2022-08-05T01:02:25.873Z,1009.43
2022-08-05T01:03:30.956Z,1009.51
2022-08-05T01:04:26.819Z,1009.49
2022-08-05T01:05:27.365Z,1009.50
2022-08-05T01:06:32.415Z,1009.53
2022-08-05T01:07:31.698Z,1009.52
2022-08-05T01:09:26.139Z,1009.57
2022-08-05T01:10:26.173Z,1009.58
2022-08-05T01:11:33.494Z,1009.58
2022-08-05T01:12:29.804Z,1009.58
2022-08-05T01:13:27.381Z,1009.59
2022-08-05T01:14:27.856Z,1009.60
2022-08-05T01:15:36.314Z,1009.56
2022-08-05T01:16:26.646Z,1009.60
2022-08-05T01:17:26.572Z,1009.54
2022-08-05T01:18:27.474Z,1009.49
2022-08-05T01:19:46.331Z,1009.49
2022-08-05T01:20:26.966Z,1009.47
2022-08-05T01:21:26.579Z,1009.46
2022-08-05T01:22:28.066Z,1009.46
2022-08-05T01:23:34.575Z,1009.44
2022-08-05T01:24:26.688Z,1009.45
2022-08-05T01:25:40.793Z,1009.43
2022-08-05T01:26:26.761Z,1009.41
2022-08-05T01:27:27.104Z,1009.42
2022-08-05T01:28:26.884Z,1009.41
2022-08-05T01:29:26.873Z,1009.42
2022-08-05T01:30:34.844Z,1009.44
2022-08-05T01:31:26.946Z,1009.45
2022-08-05T01:32:27.724Z,1009.46
2022-08-05T01:33:27.018Z,1009.48
2022-08-05T01:34:27.194Z,1009.49
2022-08-05T01:35:50.864Z,1009.51
2022-08-05T01:38:29.242Z,1009.67
2022-08-05T01:39:46.685Z,1009.73
2022-08-05T01:40:27.930Z,1009.76
2022-08-05T01:41:27.310Z,1009.78
2022-08-05T01:42:27.351Z,1009.78
2022-08-05T01:43:27.389Z,1009.81
2022-08-05T01:44:35.262Z,1009.82
2022-08-05T01:45:27.458Z,1009.83
2022-08-05T01:46:43.051Z,1009.88
2022-08-05T01:47:38.908Z,1009.86
2022-08-05T01:48:27.655Z,1009.88
2022-08-05T01:49:27.606Z,1009.94
2022-08-05T01:50:28.808Z,1009.97
2022-08-05T01:51:29.387Z,1010.00
2022-08-05T01:52:27.717Z,1010.00
2022-08-05T01:53:54.427Z,1009.98
2022-08-05T01:54:27.791Z,1010.01
2022-08-05T01:55:27.823Z,1010.01
2022-08-05T01:58:12.869Z,1010.07
2022-08-05T01:58:29.231Z,1010.06
2022-08-05T01:59:27.984Z,1010.13
2022-08-05T02:00:30.395Z,1010.17
2022-08-05T02:01:28.191Z,1010.22
2022-08-05T02:03:31.805Z,1010.32
2022-08-05T02:04:28.455Z,1010.32
2022-08-05T02:05:28.735Z,1010.30
2022-08-05T02:06:38.431Z,1010.28
2022-08-05T02:09:28.406Z,1010.29
2022-08-05T02:10:28.777Z,1010.30
2022-08-05T02:11:33.548Z,1010.24
2022-08-05T02:12:28.493Z,1010.24
2022-08-05T02:13:28.479Z,1010.23
2022-08-05T02:14:28.517Z,1010.24
2022-08-05T02:15:33.376Z,1010.25
2022-08-05T02:16:29.038Z,1010.31
2022-08-05T02:18:28.725Z,1010.42
2022-08-05T02:18:34.263Z,1010.46
2022-08-05T02:19:28.695Z,1010.48
2022-08-05T02:20:28.793Z,1010.51
2022-08-05T02:21:28.770Z,1010.53
2022-08-05T02:22:28.808Z,1010.53
2022-08-05T02:23:28.942Z,1010.58
2022-08-05T02:24:28.878Z,1010.61
2022-08-05T02:25:33.461Z,1010.63
2022-08-05T02:26:28.948Z,1010.65
2022-08-05T02:27:29.837Z,1010.69
2022-08-05T02:29:59.152Z,1010.70
2022-08-05T02:30:29.903Z,1010.70
2022-08-05T02:31:29.163Z,1010.77
2022-08-05T02:32:31.645Z,1010.83
2022-08-05T02:33:35.903Z,1010.89
2022-08-05T02:34:29.284Z,1010.93
2022-08-05T02:35:33.394Z,1010.97
2022-08-05T02:36:31.317Z,1011.08
2022-08-05T02:37:29.345Z,1011.10
2022-08-05T02:38:35.540Z,1011.13
2022-08-05T02:39:29.761Z,1011.19
2022-08-05T02:40:29.450Z,1011.27
2022-08-05T02:41:43.214Z,1011.36
2022-08-05T02:42:34.269Z,1011.43
2022-08-05T02:43:29.557Z,1011.55
2022-08-05T02:44:29.595Z,1011.61
2022-08-05T02:45:52.006Z,1011.65
2022-08-05T02:46:29.667Z,1011.64
2022-08-05T02:47:58.482Z,1011.64
2022-08-05T02:48:29.942Z,1011.59
2022-08-05T02:49:35.974Z,1011.54
2022-08-05T02:50:29.922Z,1011.49
2022-08-05T02:52:03.026Z,1011.41
2022-08-05T02:52:30.900Z,1011.30
2022-08-05T02:53:39.627Z,1011.08
2022-08-05T02:54:35.958Z,1010.74
2022-08-05T02:55:54.814Z,1010.40
2022-08-05T02:56:30.075Z,1009.97
2022-08-05T02:58:12.296Z,1009.36
2022-08-05T02:58:30.505Z,1008.83
2022-08-05T02:59:30.132Z,1008.61
2022-08-05T03:00:30.172Z,1008.53
2022-08-05T03:01:30.317Z,1008.56
2022-08-05T03:02:30.239Z,1008.75
2022-08-05T03:03:33.915Z,1008.88
2022-08-05T03:04:30.388Z,1009.02
2022-08-05T03:06:54.001Z,1009.12
2022-08-05T03:06:55.753Z,1009.13
2022-08-05T03:08:00.192Z,1009.11
2022-08-05T03:08:30.448Z,1009.11
2022-08-05T03:09:37.438Z,1009.17
2022-08-05T03:11:57.301Z,1009.43
2022-08-05T03:12:30.599Z,1009.60
2022-08-05T03:13:52.173Z,1009.78
2022-08-05T03:14:30.678Z,1009.94
2022-08-05T03:15:30.743Z,1010.09
2022-08-05T03:16:31.771Z,1010.15
2022-08-05T03:17:30.769Z,1010.30
2022-08-05T03:18:30.892Z,1010.37
2022-08-05T03:19:34.439Z,1010.46
2022-08-05T03:20:30.883Z,1010.50
2022-08-05T03:21:33.214Z,1010.52
2022-08-05T03:22:32.202Z,1010.59
2022-08-05T03:23:31.237Z,1010.58
2022-08-05T03:25:33.268Z,1010.70
2022-08-05T03:26:32.501Z,1010.66
2022-08-05T03:27:59.282Z,1010.65
2022-08-05T03:28:31.163Z,1010.56
2022-08-05T03:29:45.357Z,1010.52
2022-08-05T03:30:34.245Z,1010.49
2022-08-05T03:31:57.417Z,1010.50
2022-08-05T03:33:42.261Z,1010.55
2022-08-05T03:34:31.392Z,1010.56
2022-08-05T03:35:33.706Z,1010.57
2022-08-05T03:36:31.752Z,1010.55
2022-08-05T03:37:31.493Z,1010.60
2022-08-05T03:38:33.351Z,1010.59
2022-08-05T03:39:35.246Z,1010.60
2022-08-05T03:40:32.610Z,1010.53
2022-08-05T03:41:33.182Z,1010.52
2022-08-05T03:42:41.613Z,1010.48
2022-08-05T03:44:08.401Z,1010.46
2022-08-05T03:44:31.738Z,1010.50
2022-08-05T03:45:31.774Z,1010.54
2022-08-05T03:46:32.592Z,1010.56
2022-08-05T03:47:35.493Z,1010.59
2022-08-05T03:48:35.323Z,1010.55
2022-08-05T03:49:51.887Z,1010.54
2022-08-05T03:50:31.957Z,1010.50
2022-08-05T03:52:38.609Z,1010.51
2022-08-05T03:52:38.671Z,1010.51
2022-08-05T03:55:00.220Z,1010.44
2022-08-05T03:55:50.016Z,1010.49
2022-08-05T03:56:35.129Z,1010.39
2022-08-05T03:57:41.667Z,1010.42
2022-08-05T03:58:32.243Z,1010.36
2022-08-05T03:59:47.527Z,1010.32
2022-08-05T04:00:32.567Z,1010.23
2022-08-05T04:01:32.519Z,1010.19
2022-08-05T04:02:39.168Z,1010.14
2022-08-05T04:03:32.420Z,1010.08
2022-08-05T04:04:32.479Z,1010.06
2022-08-05T04:05:33.406Z,1010.09
2022-08-05T04:06:32.531Z,1010.06
2022-08-05T04:07:33.004Z,1010.10
2022-08-05T04:08:36.710Z,1010.08
2022-08-05T04:09:32.644Z,1010.09
2022-08-05T04:10:37.637Z,1010.10
2022-08-05T04:13:49.676Z,1009.89
2022-08-05T04:14:33.069Z,1009.81
2022-08-05T04:15:36.416Z,1009.80
2022-08-05T04:16:32.890Z,1009.79
2022-08-05T04:17:36.435Z,1009.73
2022-08-05T04:18:34.459Z,1009.67
2022-08-05T04:19:33.002Z,1009.59
2022-08-05T04:20:33.041Z,1009.48
2022-08-05T04:22:08.062Z,1009.41
2022-08-05T04:22:33.106Z,1009.37
2022-08-05T04:24:01.112Z,1009.31
2022-08-05T04:24:33.213Z,1009.37
2022-08-05T04:25:56.929Z,1009.43
2022-08-05T04:26:33.250Z,1009.49
2022-08-05T04:27:43.632Z,1009.53
2022-08-05T04:28:33.574Z,1009.59
2022-08-05T04:29:33.361Z,1009.61
2022-08-05T04:30:33.396Z,1009.76
2022-08-05T04:31:38.774Z,1009.85
2022-08-05T04:32:33.595Z,1009.92
2022-08-05T04:34:17.343Z,1009.97
2022-08-05T04:36:16.641Z,1009.78
2022-08-05T04:36:46.163Z,1009.69
2022-08-05T04:37:41.893Z,1009.72
2022-08-05T04:38:39.575Z,1009.81
2022-08-05T04:39:35.228Z,1009.95
2022-08-05T04:40:33.760Z,1010.03
2022-08-05T04:41:37.670Z,1010.07
2022-08-05T04:42:34.130Z,1010.15
2022-08-05T04:43:33.867Z,1010.19
2022-08-05T04:45:49.078Z,1010.25
2022-08-05T04:46:33.975Z,1010.24
2022-08-05T04:47:42.740Z,1010.28
2022-08-05T04:48:34.308Z,1010.30
2022-08-05T04:49:39.226Z,1010.29
2022-08-05T04:50:34.473Z,1010.37
2022-08-05T04:51:34.157Z,1010.38
2022-08-05T04:52:34.412Z,1010.38
2022-08-05T04:53:35.405Z,1010.39
2022-08-05T04:56:11.968Z,1010.33
2022-08-05T04:56:37.184Z,1010.38
2022-08-05T04:57:37.216Z,1010.33
2022-08-05T04:58:34.413Z,1010.34
2022-08-05T04:59:38.861Z,1010.34
2022-08-05T05:02:35.623Z,1010.26
2022-08-05T05:02:41.411Z,1010.25
2022-08-05T05:03:42.201Z,1010.16
2022-08-05T05:04:34.629Z,1010.14
2022-08-05T05:05:34.666Z,1010.14
2022-08-05T05:07:35.686Z,1010.11
2022-08-05T05:08:35.022Z,1010.13
2022-08-05T05:09:34.808Z,1010.12
2022-08-05T05:10:34.855Z,1010.16
2022-08-05T05:11:48.526Z,1010.14
2022-08-05T05:12:36.850Z,1010.19
2022-08-05T05:14:36.243Z,1010.21
2022-08-05T05:15:57.488Z,1010.22
2022-08-05T05:16:35.064Z,1010.23
2022-08-05T05:17:56.566Z,1010.20
2022-08-05T05:18:35.140Z,1010.15
2022-08-05T05:19:37.194Z,1010.16
2022-08-05T05:21:35.289Z,1010.16
2022-08-05T05:22:35.578Z,1010.13
2022-08-05T05:23:39.184Z,1010.07
2022-08-05T05:24:58.063Z,1010.12
2022-08-05T05:25:40.957Z,1010.17
2022-08-05T05:26:35.424Z,1010.23
2022-08-05T05:27:41.588Z,1010.26
2022-08-05T05:28:42.684Z,1010.28
2022-08-05T05:30:03.646Z,1010.34
2022-08-05T05:30:35.572Z,1010.31
2022-08-05T05:32:15.947Z,1010.30
2022-08-05T05:33:17.378Z,1010.29
2022-08-05T05:34:18.993Z,1010.29
2022-08-05T05:35:19.862Z,1010.32
2022-08-05T05:36:16.094Z,1010.31
2022-08-05T05:37:16.237Z,1010.28
2022-08-05T05:38:22.388Z,1010.30
2022-08-05T05:39:16.227Z,1010.33
2022-08-05T05:40:16.237Z,1010.32
2022-08-05T05:41:16.406Z,1010.32
2022-08-05T05:42:16.356Z,1010.33
2022-08-05T05:43:16.345Z,1010.38
2022-08-05T05:46:18.140Z,1010.42
2022-08-05T05:47:21.545Z,1010.44
2022-08-05T05:48:16.531Z,1010.43
2022-08-05T05:49:23.074Z,1010.46
2022-08-05T05:50:16.602Z,1010.50
2022-08-05T05:52:28.746Z,1010.57
2022-08-05T05:53:21.436Z,1010.56
2022-08-05T05:54:16.743Z,1010.56
2022-08-05T05:55:16.786Z,1010.53
2022-08-05T05:56:31.429Z,1010.50
2022-08-05T05:57:19.227Z,1010.55
2022-08-05T05:58:16.891Z,1010.48
2022-08-05T05:59:17.230Z,1010.50
2022-08-05T06:00:16.959Z,1010.53
2022-08-05T06:01:16.999Z,1010.51
2022-08-05T06:02:17.034Z,1010.50
2022-08-05T06:03:40.225Z,1010.48
2022-08-05T06:04:17.136Z,1010.52
2022-08-05T06:05:17.331Z,1010.56
2022-08-05T06:06:17.482Z,1010.56
2022-08-05T06:07:17.219Z,1010.53
2022-08-05T06:08:32.539Z,1010.56
2022-08-05T06:09:24.910Z,1010.52
2022-08-05T06:10:17.325Z,1010.56
2022-08-05T06:11:17.363Z,1010.58
2022-08-05T06:12:17.407Z,1010.56
2022-08-05T06:13:17.685Z,1010.61
2022-08-05T06:14:17.472Z,1010.64
2022-08-05T06:15:24.065Z,1010.63
2022-08-05T06:16:28.661Z,1010.59
2022-08-05T06:17:31.973Z,1010.65
2022-08-05T06:18:17.619Z,1010.62
2022-08-05T06:19:26.084Z,1010.64
2022-08-05T06:20:18.894Z,1010.64
2022-08-05T06:21:18.787Z,1010.64
2022-08-05T06:22:17.764Z,1010.69
2022-08-05T06:23:17.802Z,1010.76
2022-08-05T06:24:17.838Z,1010.78
2022-08-05T06:25:25.339Z,1010.86
2022-08-05T06:26:21.242Z,1010.87
2022-08-05T06:28:11.644Z,1010.86
2022-08-05T06:28:21.270Z,1010.90
2022-08-05T06:29:42.778Z,1010.86
2022-08-05T06:30:21.101Z,1010.89
2022-08-05T06:31:22.034Z,1010.90
2022-08-05T06:33:19.392Z,1010.93
2022-08-05T06:34:19.900Z,1010.92
2022-08-05T06:36:03.194Z,1010.86
2022-08-05T06:36:18.351Z,1010.89
2022-08-05T06:37:18.324Z,1010.89
2022-08-05T06:38:18.347Z,1010.84
2022-08-05T06:39:18.453Z,1010.84
2022-08-05T06:40:21.401Z,1010.85
2022-08-05T06:41:18.457Z,1010.84
2022-08-05T06:42:18.494Z,1010.84
2022-08-05T06:43:58.550Z,1010.85
2022-08-05T06:45:20.675Z,1010.86
2022-08-05T06:46:18.644Z,1010.87
2022-08-05T06:47:30.047Z,1010.88
2022-08-05T06:48:47.007Z,1010.85
2022-08-05T06:49:18.929Z,1010.88
2022-08-05T06:50:18.786Z,1010.90
2022-08-05T06:51:23.919Z,1010.89
2022-08-05T06:52:36.710Z,1010.85
2022-08-05T06:54:19.388Z,1010.88
2022-08-05T06:56:26.415Z,1010.91
2022-08-05T06:58:03.933Z,1010.90
2022-08-05T06:59:19.112Z,1010.95
2022-08-05T07:00:22.484Z,1010.98
2022-08-05T07:01:20.828Z,1010.99
2022-08-05T07:02:19.222Z,1011.00
2022-08-05T07:03:19.254Z,1011.01
2022-08-05T07:04:19.374Z,1010.99
2022-08-05T07:05:21.384Z,1011.01
2022-08-05T07:06:20.752Z,1011.01
2022-08-05T07:07:24.114Z,1011.05
2022-08-05T07:08:19.439Z,1011.08
2022-08-05T07:09:19.655Z,1011.08
2022-08-05T07:10:19.515Z,1011.14
2022-08-05T07:11:22.235Z,1011.16
2022-08-05T07:12:19.584Z,1011.16
2022-08-05T07:13:56.835Z,1011.15
2022-08-05T07:14:20.477Z,1011.18
2022-08-05T07:15:34.360Z,1011.14
2022-08-05T07:17:59.397Z,1011.20
2022-08-05T07:18:29.197Z,1011.21
2022-08-05T07:19:44.247Z,1011.24
2022-08-05T07:20:36.995Z,1011.29
2022-08-05T07:21:25.949Z,1011.26
2022-08-05T07:22:19.946Z,1011.32
2022-08-05T07:23:26.262Z,1011.35
2022-08-05T07:25:23.418Z,1011.34
2022-08-05T07:26:22.844Z,1011.36
2022-08-05T07:27:20.127Z,1011.42
2022-08-05T07:28:20.181Z,1011.44
2022-08-05T07:29:20.203Z,1011.47
2022-08-05T07:30:24.260Z,1011.53
2022-08-05T07:31:20.274Z,1011.54
2022-08-05T07:32:26.017Z,1011.60
2022-08-05T07:33:20.351Z,1011.58
2022-08-05T07:34:21.536Z,1011.61
2022-08-05T07:36:04.000Z,1011.59
2022-08-05T07:36:21.477Z,1011.60
2022-08-05T07:37:20.488Z,1011.56
2022-08-05T07:39:50.342Z,1011.62
2022-08-05T07:40:32.530Z,1011.61
2022-08-05T07:42:12.826Z,1011.63
2022-08-05T07:42:33.579Z,1011.66
2022-08-05T07:43:21.221Z,1011.65
2022-08-05T07:45:56.774Z,1011.68
2022-08-05T07:46:24.458Z,1011.69
2022-08-05T07:49:01.614Z,1011.72
2022-08-05T07:49:20.925Z,1011.74
2022-08-05T07:50:25.021Z,1011.75
2022-08-05T07:51:23.384Z,1011.74
2022-08-05T07:52:21.030Z,1011.76
2022-08-05T07:53:21.070Z,1011.78
2022-08-05T07:54:21.104Z,1011.82
2022-08-05T07:55:44.291Z,1011.81
2022-08-05T07:56:39.010Z,1011.86
2022-08-05T07:57:50.483Z,1011.89
2022-08-05T07:58:54.623Z,1011.88
2022-08-05T07:59:21.941Z,1011.88
2022-08-05T08:00:21.385Z,1011.91
2022-08-05T08:01:22.098Z,1011.91
2022-08-05T08:02:21.399Z,1011.92
2022-08-05T08:03:21.703Z,1011.93
2022-08-05T08:04:22.966Z,1011.92
2022-08-05T08:05:21.506Z,1012.00
2022-08-05T08:06:21.546Z,1012.02
2022-08-05T08:07:22.509Z,1012.04
2022-08-05T08:08:21.612Z,1012.06
2022-08-05T08:09:21.649Z,1012.07
2022-08-05T08:10:21.934Z,1012.04
2022-08-05T08:11:27.414Z,1012.13
2022-08-05T08:12:29.698Z,1012.14
2022-08-05T08:13:29.409Z,1012.14
2022-08-05T08:14:21.927Z,1012.20
2022-08-05T08:16:33.878Z,1012.17
2022-08-05T08:16:35.167Z,1012.19
2022-08-05T08:17:22.243Z,1012.17
2022-08-05T08:18:21.985Z,1012.17
2022-08-05T08:20:10.127Z,1012.21
2022-08-05T08:20:59.908Z,1012.16
2022-08-05T08:21:22.091Z,1012.22
2022-08-05T08:22:22.119Z,1012.23
2022-08-05T08:24:03.904Z,1012.26
2022-08-05T08:24:22.193Z,1012.24
2022-08-05T08:25:26.861Z,1012.27
2022-08-05T08:26:29.481Z,1012.31
2022-08-05T08:27:22.659Z,1012.29
2022-08-05T08:28:36.335Z,1012.35
2022-08-05T08:30:04.595Z,1012.34
2022-08-05T08:30:32.752Z,1012.33
2022-08-05T08:31:22.536Z,1012.34
2022-08-05T08:32:28.032Z,1012.40
2022-08-05T08:33:22.550Z,1012.42
2022-08-05T08:34:30.256Z,1012.42
2022-08-05T08:35:22.591Z,1012.46
2022-08-05T08:36:38.556Z,1012.45
2022-08-05T08:37:27.897Z,1012.49
2022-08-05T08:38:35.544Z,1012.48
2022-08-05T08:39:22.792Z,1012.48
2022-08-05T08:40:22.771Z,1012.52
2022-08-05T08:41:26.019Z,1012.50
2022-08-05T08:42:34.259Z,1012.50
2022-08-05T08:45:23.173Z,1012.56
2022-08-05T08:45:23.925Z,1012.51
2022-08-05T08:45:27.165Z,1012.56
2022-08-05T08:46:22.995Z,1012.54
2022-08-05T08:48:06.381Z,1012.55
2022-08-05T08:50:29.863Z,1012.63
2022-08-05T08:51:03.933Z,1012.62
2022-08-05T08:52:04.306Z,1012.66
2022-08-05T08:52:23.202Z,1012.67
2022-08-05T08:53:23.238Z,1012.67
2022-08-05T08:54:27.174Z,1012.75
2022-08-05T08:55:32.214Z,1012.73
2022-08-05T08:56:23.358Z,1012.74
2022-08-05T08:57:23.634Z,1012.77
2022-08-05T08:58:37.061Z,1012.79
2022-08-05T08:59:23.463Z,1012.81
2022-08-05T09:00:23.491Z,1012.87
2022-08-05T09:01:23.599Z,1012.84
2022-08-05T09:02:26.647Z,1012.86
2022-08-05T09:03:23.918Z,1012.92
2022-08-05T09:04:23.641Z,1012.92
2022-08-05T09:05:38.560Z,1012.90
2022-08-05T09:06:27.876Z,1012.91
2022-08-05T09:07:28.994Z,1012.97
2022-08-05T09:08:26.712Z,1012.95
2022-08-05T09:09:24.117Z,1012.94
2022-08-05T09:10:27.709Z,1013.00
2022-08-05T09:11:51.758Z,1012.99
2022-08-05T09:12:27.808Z,1013.03
2022-08-05T09:13:23.961Z,1013.08
2022-08-05T09:14:56.315Z,1013.06
2022-08-05T09:15:24.284Z,1013.10
2022-08-05T09:16:24.301Z,1013.10
2022-08-05T09:17:40.851Z,1013.07
2022-08-05T09:18:24.178Z,1013.15
2022-08-05T09:19:27.670Z,1013.09
2022-08-05T09:20:37.814Z,1013.09
2022-08-05T09:22:17.825Z,1013.08
2022-08-05T09:22:31.038Z,1013.09
2022-08-05T09:23:27.176Z,1013.10
2022-08-05T09:24:24.415Z,1013.10
2022-08-05T09:26:03.111Z,1013.07
2022-08-05T09:26:24.583Z,1013.15
2022-08-05T09:28:05.428Z,1013.14
2022-08-05T09:28:31.597Z,1013.15
2022-08-05T09:29:30.699Z,1013.15
2022-08-05T09:30:24.574Z,1013.16
2022-08-05T09:32:41.484Z,1013.17
2022-08-05T09:32:41.684Z,1013.12
2022-08-05T09:34:25.996Z,1013.15
2022-08-05T09:35:27.283Z,1013.15
2022-08-05T09:36:27.678Z,1013.14
2022-08-05T09:38:17.089Z,1013.13
2022-08-05T09:38:27.456Z,1013.16
2022-08-05T09:39:41.571Z,1013.18
2022-08-05T09:40:25.303Z,1013.16
2022-08-05T09:41:24.975Z,1013.19
2022-08-05T09:42:28.531Z,1013.18
2022-08-05T09:43:25.050Z,1013.18
2022-08-05T09:44:25.183Z,1013.12
2022-08-05T09:46:06.298Z,1013.16
2022-08-05T09:46:27.496Z,1013.19
2022-08-05T09:48:25.234Z,1013.21
2022-08-05T09:49:54.360Z,1013.18
2022-08-05T09:50:37.417Z,1013.21
2022-08-05T09:51:25.344Z,1013.23
2022-08-05T09:52:25.959Z,1013.29
2022-08-05T09:53:30.851Z,1013.29
2022-08-05T09:54:28.983Z,1013.29
2022-08-05T09:55:58.189Z,1013.26
2022-08-05T09:57:25.555Z,1013.31
2022-08-05T09:58:25.692Z,1013.34
2022-08-05T09:59:27.410Z,1013.38
2022-08-05T10:01:32.425Z,1013.44
2022-08-05T10:02:26.159Z,1013.44
2022-08-05T10:03:25.781Z,1013.49
2022-08-05T10:04:29.232Z,1013.52
2022-08-05T10:05:26.741Z,1013.57
2022-08-05T10:06:25.881Z,1013.54
2022-08-05T10:07:50.394Z,1013.60
2022-08-05T10:08:37.365Z,1013.60
2022-08-05T10:09:28.117Z,1013.62
2022-08-05T10:10:28.270Z,1013.65
2022-08-05T10:11:29.673Z,1013.66
2022-08-05T10:12:33.740Z,1013.70
2022-08-05T10:13:26.137Z,1013.75
2022-08-05T10:14:26.813Z,1013.74
2022-08-05T10:15:26.206Z,1013.73
2022-08-05T10:16:26.246Z,1013.77
2022-08-05T10:17:37.259Z,1013.76
2022-08-05T10:18:26.319Z,1013.79
2022-08-05T10:19:59.175Z,1013.78
2022-08-05T10:20:26.397Z,1013.82
2022-08-05T10:21:26.425Z,1013.85
2022-08-05T10:22:29.856Z,1013.88
2022-08-05T10:23:55.844Z,1013.88
2022-08-05T10:24:27.115Z,1013.91
2022-08-05T10:25:26.676Z,1013.91
2022-08-05T10:26:32.345Z,1013.93
2022-08-05T10:28:09.333Z,1013.96
2022-08-05T10:28:29.209Z,1014.00
2022-08-05T10:30:41.349Z,1014.00
2022-08-05T10:31:20.053Z,1014.07
2022-08-05T10:32:51.907Z,1014.12
2022-08-05T10:32:54.989Z,1014.12
2022-08-05T10:33:28.854Z,1014.11
2022-08-05T10:34:31.050Z,1014.11
2022-08-05T10:35:33.837Z,1014.14
2022-08-05T10:36:27.022Z,1014.14
2022-08-05T10:37:27.012Z,1014.19
2022-08-05T10:39:59.194Z,1014.25
2022-08-05T10:40:27.998Z,1014.25
2022-08-05T10:41:27.157Z,1014.29
2022-08-05T10:42:33.771Z,1014.26
2022-08-05T10:43:30.932Z,1014.21
2022-08-05T10:44:27.280Z,1014.25
2022-08-05T10:45:39.815Z,1014.29
2022-08-05T10:46:27.338Z,1014.33
2022-08-05T10:47:31.182Z,1014.28
2022-08-05T10:48:29.919Z,1014.38
2022-08-05T10:49:33.264Z,1014.34
2022-08-05T10:50:36.267Z,1014.30
2022-08-05T10:51:28.758Z,1014.26
2022-08-05T10:52:27.579Z,1014.30
2022-08-05T10:53:27.608Z,1014.29
2022-08-05T10:54:29.428Z,1014.45
2022-08-05T10:55:27.670Z,1014.45
2022-08-05T10:56:27.706Z,1014.43
2022-08-05T10:57:31.716Z,1014.44
2022-08-05T10:58:35.926Z,1014.39
2022-08-05T11:00:04.210Z,1014.30
2022-08-05T11:00:27.855Z,1014.31
2022-08-05T11:01:28.385Z,1014.31
2022-08-05T11:02:38.182Z,1014.34
2022-08-05T11:03:28.018Z,1014.39
2022-08-05T11:04:28.257Z,1014.55
2022-08-05T11:05:31.512Z,1014.60
2022-08-05T11:06:30.802Z,1014.61
2022-08-05T11:07:32.870Z,1014.60
2022-08-05T11:08:37.111Z,1014.62
2022-08-05T11:10:29.212Z,1014.71
2022-08-05T11:11:33.091Z,1014.64
2022-08-05T11:12:28.298Z,1014.59
2022-08-05T11:13:28.332Z,1014.72
2022-08-05T11:14:57.766Z,1014.74
2022-08-05T11:15:59.984Z,1014.73
2022-08-05T11:16:33.714Z,1014.72
2022-08-05T11:17:59.134Z,1014.59
2022-08-05T11:18:29.939Z,1014.61
2022-08-05T11:20:10.143Z,1014.61
2022-08-05T11:20:28.592Z,1014.67
2022-08-05T11:21:28.629Z,1014.75
2022-08-05T11:22:28.667Z,1014.73
2022-08-05T11:23:33.647Z,1014.76
2022-08-05T11:24:30.225Z,1014.68
2022-08-05T11:26:05.595Z,1014.75
2022-08-05T11:26:32.383Z,1014.74
2022-08-05T11:27:28.850Z,1014.79
2022-08-05T11:28:28.903Z,1014.73
2022-08-05T11:29:28.929Z,1014.75
2022-08-05T11:30:29.216Z,1014.69
2022-08-05T11:31:56.447Z,1014.72
2022-08-05T11:32:29.035Z,1014.74
2022-08-05T11:33:43.808Z,1014.77
2022-08-05T11:34:29.115Z,1014.76
2022-08-05T11:36:34.429Z,1014.74
2022-08-05T11:38:29.693Z,1014.70
2022-08-05T11:38:36.562Z,1014.62
2022-08-05T11:39:29.417Z,1014.58
2022-08-05T11:40:29.335Z,1014.56
2022-08-05T11:41:54.435Z,1014.59
2022-08-05T11:42:29.671Z,1014.67
2022-08-05T11:44:06.574Z,1014.67
2022-08-05T11:44:53.273Z,1014.74
2022-08-05T11:46:15.386Z,1014.62
2022-08-05T11:47:49.275Z,1014.68
2022-08-05T11:48:29.635Z,1014.67
2022-08-05T11:49:33.739Z,1014.67
2022-08-05T11:50:29.745Z,1014.67
2022-08-05T11:51:43.594Z,1014.63
2022-08-05T11:52:31.069Z,1014.63
2022-08-05T11:53:29.940Z,1014.66
2022-08-05T11:54:33.106Z,1014.66
2022-08-05T11:55:32.155Z,1014.65
2022-08-05T11:56:40.638Z,1014.66
2022-08-05T11:59:30.051Z,1014.59
2022-08-05T12:00:30.441Z,1014.55
2022-08-05T12:01:30.142Z,1014.61
2022-08-05T12:03:32.026Z,1014.64
2022-08-05T12:04:30.244Z,1014.58
2022-08-05T12:06:30.314Z,1014.56
2022-08-05T12:08:09.665Z,1014.54
2022-08-05T12:08:31.438Z,1014.60
2022-08-05T12:09:52.873Z,1014.66
2022-08-05T12:10:42.926Z,1014.78
2022-08-05T12:11:40.128Z,1014.67
2022-08-05T12:12:30.550Z,1014.62
2022-08-05T12:13:48.454Z,1014.62
2022-08-05T12:14:30.609Z,1014.66
2022-08-05T12:15:38.041Z,1014.69
2022-08-05T12:16:30.786Z,1014.65
2022-08-05T12:17:57.862Z,1014.68
2022-08-05T12:18:33.050Z,1014.70
2022-08-05T12:20:17.204Z,1014.74
2022-08-05T12:20:33.260Z,1014.79
2022-08-05T12:21:30.887Z,1014.82
2022-08-05T12:22:30.917Z,1014.78
2022-08-05T12:23:30.953Z,1014.74
2022-08-05T12:24:31.231Z,1014.80
2022-08-05T12:25:31.023Z,1014.95
2022-08-05T12:26:31.055Z,1014.99
2022-08-05T12:27:32.681Z,1014.93
2022-08-05T12:28:31.128Z,1014.87
2022-08-05T12:29:38.017Z,1014.81
2022-08-05T12:30:32.224Z,1014.81
2022-08-05T12:31:42.387Z,1014.81
2022-08-05T12:32:31.278Z,1014.81
2022-08-05T12:33:36.313Z,1014.90
2022-08-05T12:34:31.493Z,1014.93
2022-08-05T12:36:31.474Z,1015.04
2022-08-05T12:37:31.925Z,1015.04
2022-08-05T12:38:31.761Z,1015.03
2022-08-05T12:39:37.460Z,1014.96
2022-08-05T12:40:31.584Z,1014.80
2022-08-05T12:41:34.541Z,1014.84
2022-08-05T12:42:31.658Z,1014.86
2022-08-05T12:43:32.293Z,1014.93
2022-08-05T12:44:33.789Z,1014.95
2022-08-05T12:45:49.573Z,1014.99
2022-08-05T12:46:31.810Z,1015.01
2022-08-05T12:47:31.936Z,1014.98
2022-08-05T12:48:33.012Z,1014.95
2022-08-05T12:50:03.869Z,1014.99
2022-08-05T12:50:31.959Z,1014.89
2022-08-05T12:52:13.675Z,1014.93
2022-08-05T12:52:38.689Z,1014.94
2022-08-05T12:53:36.966Z,1014.98
2022-08-05T12:54:32.114Z,1015.01
2022-08-05T12:55:32.813Z,1015.05
2022-08-05T12:56:34.888Z,1015.07
2022-08-05T12:57:32.228Z,1014.97
2022-08-05T12:58:49.930Z,1014.99
2022-08-05T13:00:08.273Z,1014.98